sensor_id;sensor_type;location;lat;lon;timestamp;P1;durP1;ratioP1;P2;durP2;ratioP2
19609;SDS011;9952;47.122;-1.638;2022-12-24T00:00:59;8.40;;;1.70;;
19609;SDS011;9952;47.122;-1.638;2022-12-24T00:05:40;11.87;;;2.27;;
19609;SDS011;9952;47.122;-1.638;2022-12-24T00:10:21;11.10;;;1.47;;
19609;SDS011;9952;47.122;-1.638;2022-12-24T00:15:02;14.20;;;2.03;;
19609;SDS011;9952;47.122;-1.638;2022-12-24T00:19:44;17.23;;;1.97;;
19609;SDS011;9952;47.122;-1.638;2022-12-24T00:24:24;7.73;;;1.60;;
19609;SDS011;9952;47.122;-1.638;2022-12-24T00:29:05;9.93;;;1.70;;
19609;SDS011;9952;47.122;-1.638;2022-12-24T00:33:46;19.97;;;2.07;;
19609;SDS011;9952;47.122;-1.638;2022-12-24T00:38:27;16.40;;;2.53;;
19609;SDS011;9952;47.122;-1.638;2022-12-24T00:43:08;14.27;;;1.70;;
19609;SDS011;9952;47.122;-1.638;2022-12-24T00:47:49;10.23;;;1.67;;
19609;SDS011;9952;47.122;-1.638;2022-12-24T00:52:29;11.03;;;1.43;;
19609;SDS011;9952;47.122;-1.638;2022-12-24T00:57:10;9.23;;;1.50;;
19609;SDS011;9952;47.122;-1.638;2022-12-24T01:01:51;11.70;;;1.83;;
19609;SDS011;9952;47.122;-1.638;2022-12-24T01:06:32;12.00;;;2.00;;
19609;SDS011;9952;47.122;-1.638;2022-12-24T01:11:12;12.93;;;1.90;;
19609;SDS011;9952;47.122;-1.638;2022-12-24T01:15:53;17.80;;;2.00;;
19609;SDS011;9952;47.122;-1.638;2022-12-24T01:20:34;12.63;;;1.97;;
19609;SDS011;9952;47.122;-1.638;2022-12-24T01:25:15;10.23;;;2.27;;
19609;SDS011;9952;47.122;-1.638;2022-12-24T01:29:56;17.67;;;2.13;;
19609;SDS011;9952;47.122;-1.638;2022-12-24T01:34:36;10.00;;;1.97;;
19609;SDS011;9952;47.122;-1.638;2022-12-24T01:39:17;13.13;;;1.97;;
19609;SDS011;9952;47.122;-1.638;2022-12-24T01:44:14;15.20;;;1.90;;
19609;SDS011;9952;47.122;-1.638;2022-12-24T01:49:13;14.07;;;2.13;;
19609;SDS011;9952;47.122;-1.638;2022-12-24T01:53:57;14.70;;;2.43;;
19609;SDS011;9952;47.122;-1.638;2022-12-24T01:58:44;12.17;;;1.87;;
19609;SDS011;9952;47.122;-1.638;2022-12-24T02:03:28;20.67;;;2.43;;
19609;SDS011;9952;47.122;-1.638;2022-12-24T02:08:09;17.40;;;3.10;;
19609;SDS011;9952;47.122;-1.638;2022-12-24T02:12:50;16.47;;;1.87;;
19609;SDS011;9952;47.122;-1.638;2022-12-24T02:17:39;16.27;;;1.90;;
19609;SDS011;9952;47.122;-1.638;2022-12-24T02:38:25;14.70;;;1.90;;
19609;SDS011;9952;47.122;-1.638;2022-12-24T02:43:15;16.60;;;2.17;;
19609;SDS011;9952;47.122;-1.638;2022-12-24T02:48:00;15.10;;;2.07;;
19609;SDS011;9952;47.122;-1.638;2022-12-24T02:52:43;14.33;;;1.83;;
19609;SDS011;9952;47.122;-1.638;2022-12-24T02:57:38;12.07;;;2.20;;
19609;SDS011;9952;47.122;-1.638;2022-12-24T03:02:33;9.23;;;1.60;;
19609;SDS011;9952;47.122;-1.638;2022-12-24T03:07:21;12.67;;;2.30;;
19609;SDS011;9952;47.122;-1.638;2022-12-24T03:12:09;17.87;;;2.30;;
19609;SDS011;9952;47.122;-1.638;2022-12-24T03:16:56;13.87;;;2.20;;
19609;SDS011;9952;47.122;-1.638;2022-12-24T03:21:38;14.50;;;1.90;;
19609;SDS011;9952;47.122;-1.638;2022-12-24T03:26:21;14.17;;;2.43;;
19609;SDS011;9952;47.122;-1.638;2022-12-24T03:31:04;15.27;;;1.80;;
19609;SDS011;9952;47.122;-1.638;2022-12-24T03:35:46;14.30;;;2.20;;
19609;SDS011;9952;47.122;-1.638;2022-12-24T03:40:26;17.57;;;2.43;;
19609;SDS011;9952;47.122;-1.638;2022-12-24T03:45:08;14.30;;;1.80;;
19609;SDS011;9952;47.122;-1.638;2022-12-24T03:49:49;15.97;;;2.13;;
19609;SDS011;9952;47.122;-1.638;2022-12-24T03:54:30;16.73;;;2.07;;
19609;SDS011;9952;47.122;-1.638;2022-12-24T03:59:11;28.23;;;4.97;;
19609;SDS011;9952;47.122;-1.638;2022-12-24T04:03:51;15.90;;;2.07;;
19609;SDS011;9952;47.122;-1.638;2022-12-24T04:08:32;9.83;;;1.47;;
19609;SDS011;9952;47.122;-1.638;2022-12-24T04:13:13;15.30;;;2.17;;
19609;SDS011;9952;47.122;-1.638;2022-12-24T04:17:54;24.50;;;2.70;;
19609;SDS011;9952;47.122;-1.638;2022-12-24T04:22:35;19.57;;;2.33;;
19609;SDS011;9952;47.122;-1.638;2022-12-24T04:27:16;22.73;;;2.23;;
19609;SDS011;9952;47.122;-1.638;2022-12-24T04:31:57;13.60;;;2.50;;
19609;SDS011;9952;47.122;-1.638;2022-12-24T04:36:37;19.53;;;2.40;;
19609;SDS011;9952;47.122;-1.638;2022-12-24T04:41:19;17.07;;;2.63;;
19609;SDS011;9952;47.122;-1.638;2022-12-24T04:46:04;15.33;;;1.77;;
19609;SDS011;9952;47.122;-1.638;2022-12-24T04:50:50;15.33;;;2.60;;
19609;SDS011;9952;47.122;-1.638;2022-12-24T04:55:30;17.63;;;2.50;;
19609;SDS011;9952;47.122;-1.638;2022-12-24T05:00:11;17.03;;;1.83;;
19609;SDS011;9952;47.122;-1.638;2022-12-24T05:04:52;16.93;;;2.70;;
19609;SDS011;9952;47.122;-1.638;2022-12-24T05:09:33;19.20;;;1.87;;
19609;SDS011;9952;47.122;-1.638;2022-12-24T05:14:14;17.53;;;2.30;;
19609;SDS011;9952;47.122;-1.638;2022-12-24T05:18:55;11.63;;;1.37;;
19609;SDS011;9952;47.122;-1.638;2022-12-24T05:23:36;18.60;;;2.70;;
19609;SDS011;9952;47.122;-1.638;2022-12-24T05:28:36;20.27;;;3.07;;
19609;SDS011;9952;47.122;-1.638;2022-12-24T05:33:16;17.60;;;2.17;;
19609;SDS011;9952;47.122;-1.638;2022-12-24T05:37:57;17.00;;;2.87;;
19609;SDS011;9952;47.122;-1.638;2022-12-24T05:42:38;11.57;;;1.97;;
19609;SDS011;9952;47.122;-1.638;2022-12-24T05:47:19;15.27;;;1.90;;
19609;SDS011;9952;47.122;-1.638;2022-12-24T05:52:00;22.37;;;2.43;;
19609;SDS011;9952;47.122;-1.638;2022-12-24T05:56:40;11.40;;;2.00;;
19609;SDS011;9952;47.122;-1.638;2022-12-24T06:01:21;24.67;;;2.13;;
19609;SDS011;9952;47.122;-1.638;2022-12-24T06:06:04;15.67;;;5.07;;
19609;SDS011;9952;47.122;-1.638;2022-12-24T06:10:53;14.47;;;2.10;;
19609;SDS011;9952;47.122;-1.638;2022-12-24T06:15:38;13.83;;;1.63;;
19609;SDS011;9952;47.122;-1.638;2022-12-24T06:20:19;13.50;;;1.93;;
19609;SDS011;9952;47.122;-1.638;2022-12-24T06:25:00;15.27;;;2.30;;
19609;SDS011;9952;47.122;-1.638;2022-12-24T06:29:41;20.63;;;2.60;;
19609;SDS011;9952;47.122;-1.638;2022-12-24T06:34:21;16.47;;;2.40;;
19609;SDS011;9952;47.122;-1.638;2022-12-24T06:39:02;11.50;;;1.90;;
19609;SDS011;9952;47.122;-1.638;2022-12-24T06:43:43;12.53;;;2.03;;
19609;SDS011;9952;47.122;-1.638;2022-12-24T06:48:25;12.60;;;2.17;;
19609;SDS011;9952;47.122;-1.638;2022-12-24T06:53:06;18.10;;;2.10;;
19609;SDS011;9952;47.122;-1.638;2022-12-24T06:57:47;17.83;;;2.30;;
19609;SDS011;9952;47.122;-1.638;2022-12-24T07:02:27;20.67;;;2.03;;
19609;SDS011;9952;47.122;-1.638;2022-12-24T07:07:08;14.40;;;2.20;;
19609;SDS011;9952;47.122;-1.638;2022-12-24T07:11:49;16.97;;;2.63;;
19609;SDS011;9952;47.122;-1.638;2022-12-24T07:16:30;16.37;;;2.20;;
19609;SDS011;9952;47.122;-1.638;2022-12-24T07:21:10;15.57;;;2.30;;
19609;SDS011;9952;47.122;-1.638;2022-12-24T07:25:51;15.47;;;1.97;;
19609;SDS011;9952;47.122;-1.638;2022-12-24T07:30:32;19.10;;;2.53;;
19609;SDS011;9952;47.122;-1.638;2022-12-24T07:35:13;14.93;;;2.27;;
19609;SDS011;9952;47.122;-1.638;2022-12-24T07:39:54;15.90;;;2.63;;
19609;SDS011;9952;47.122;-1.638;2022-12-24T07:44:34;14.23;;;2.13;;
19609;SDS011;9952;47.122;-1.638;2022-12-24T07:49:15;16.20;;;2.23;;
19609;SDS011;9952;47.122;-1.638;2022-12-24T07:53:56;11.27;;;1.80;;
19609;SDS011;9952;47.122;-1.638;2022-12-24T07:58:37;12.93;;;2.03;;
19609;SDS011;9952;47.122;-1.638;2022-12-24T08:03:18;17.27;;;1.93;;
19609;SDS011;9952;47.122;-1.638;2022-12-24T08:07:59;13.67;;;1.60;;
19609;SDS011;9952;47.122;-1.638;2022-12-24T08:12:40;12.90;;;1.60;;
19609;SDS011;9952;47.122;-1.638;2022-12-24T08:17:21;13.67;;;2.00;;
19609;SDS011;9952;47.122;-1.638;2022-12-24T08:22:02;18.63;;;2.17;;
19609;SDS011;9952;47.122;-1.638;2022-12-24T08:26:42;18.70;;;2.50;;
19609;SDS011;9952;47.122;-1.638;2022-12-24T08:31:23;10.17;;;1.73;;
19609;SDS011;9952;47.122;-1.638;2022-12-24T08:36:04;8.37;;;1.63;;
19609;SDS011;9952;47.122;-1.638;2022-12-24T08:40:45;10.13;;;1.80;;
19609;SDS011;9952;47.122;-1.638;2022-12-24T08:45:28;13.53;;;1.33;;
19609;SDS011;9952;47.122;-1.638;2022-12-24T08:50:10;11.23;;;1.67;;
19609;SDS011;9952;47.122;-1.638;2022-12-24T08:54:51;11.00;;;1.87;;
19609;SDS011;9952;47.122;-1.638;2022-12-24T08:59:31;10.80;;;1.50;;
19609;SDS011;9952;47.122;-1.638;2022-12-24T09:04:12;16.30;;;1.80;;
19609;SDS011;9952;47.122;-1.638;2022-12-24T09:08:53;11.00;;;1.90;;
19609;SDS011;9952;47.122;-1.638;2022-12-24T09:13:34;20.47;;;2.20;;
19609;SDS011;9952;47.122;-1.638;2022-12-24T09:18:15;12.47;;;1.80;;
19609;SDS011;9952;47.122;-1.638;2022-12-24T09:22:56;14.77;;;2.10;;
19609;SDS011;9952;47.122;-1.638;2022-12-24T09:27:37;16.17;;;1.90;;
19609;SDS011;9952;47.122;-1.638;2022-12-24T09:32:18;13.70;;;1.73;;
19609;SDS011;9952;47.122;-1.638;2022-12-24T09:36:58;17.17;;;1.87;;
19609;SDS011;9952;47.122;-1.638;2022-12-24T09:46:43;11.13;;;1.40;;
19609;SDS011;9952;47.122;-1.638;2022-12-24T09:51:34;11.33;;;2.10;;
19609;SDS011;9952;47.122;-1.638;2022-12-24T09:56:27;13.50;;;1.93;;
19609;SDS011;9952;47.122;-1.638;2022-12-24T10:01:13;19.20;;;1.87;;
19609;SDS011;9952;47.122;-1.638;2022-12-24T10:06:06;15.20;;;2.17;;
19609;SDS011;9952;47.122;-1.638;2022-12-24T10:11:18;13.10;;;1.70;;
19609;SDS011;9952;47.122;-1.638;2022-12-24T10:16:06;10.83;;;1.67;;
19609;SDS011;9952;47.122;-1.638;2022-12-24T10:21:15;18.03;;;2.67;;
19609;SDS011;9952;47.122;-1.638;2022-12-24T10:26:24;6.97;;;1.53;;
19609;SDS011;9952;47.122;-1.638;2022-12-24T10:31:09;14.83;;;1.80;;
19609;SDS011;9952;47.122;-1.638;2022-12-24T10:35:52;8.27;;;1.40;;
19609;SDS011;9952;47.122;-1.638;2022-12-24T10:40:45;9.83;;;1.67;;
19609;SDS011;9952;47.122;-1.638;2022-12-24T10:45:35;12.27;;;1.83;;
19609;SDS011;9952;47.122;-1.638;2022-12-24T10:59:54;14.07;;;1.97;;
19609;SDS011;9952;47.122;-1.638;2022-12-24T11:04:50;6.37;;;1.40;;
19609;SDS011;9952;47.122;-1.638;2022-12-24T11:09:37;12.77;;;1.90;;
19609;SDS011;9952;47.122;-1.638;2022-12-24T11:14:22;14.53;;;1.90;;
19609;SDS011;9952;47.122;-1.638;2022-12-24T11:19:05;7.83;;;1.30;;
19609;SDS011;9952;47.122;-1.638;2022-12-24T11:23:59;11.27;;;2.00;;
19609;SDS011;9952;47.122;-1.638;2022-12-24T11:29:12;13.43;;;1.77;;
19609;SDS011;9952;47.122;-1.638;2022-12-24T11:33:53;8.43;;;1.47;;
19609;SDS011;9952;47.122;-1.638;2022-12-24T11:38:34;12.73;;;1.60;;
19609;SDS011;9952;47.122;-1.638;2022-12-24T11:43:19;5.07;;;0.70;;
19609;SDS011;9952;47.122;-1.638;2022-12-24T11:48:00;7.83;;;1.20;;
19609;SDS011;9952;47.122;-1.638;2022-12-24T11:52:41;9.67;;;1.57;;
19609;SDS011;9952;47.122;-1.638;2022-12-24T11:57:26;6.20;;;1.43;;
19609;SDS011;9952;47.122;-1.638;2022-12-24T12:12:01;6.57;;;1.17;;
19609;SDS011;9952;47.122;-1.638;2022-12-24T12:22:22;10.17;;;1.10;;
19609;SDS011;9952;47.122;-1.638;2022-12-24T12:32:12;8.03;;;1.10;;
19609;SDS011;9952;47.122;-1.638;2022-12-24T12:37:07;7.17;;;1.20;;
19609;SDS011;9952;47.122;-1.638;2022-12-24T12:51:53;9.67;;;1.40;;
19609;SDS011;9952;47.122;-1.638;2022-12-24T12:56:43;6.27;;;1.00;;
19609;SDS011;9952;47.122;-1.638;2022-12-24T13:01:41;9.80;;;1.67;;
19609;SDS011;9952;47.122;-1.638;2022-12-24T13:16:51;4.13;;;0.53;;
19609;SDS011;9952;47.122;-1.638;2022-12-24T13:21:41;1.43;;;0.70;;
19609;SDS011;9952;47.122;-1.638;2022-12-24T13:26:24;3.53;;;0.70;;
19609;SDS011;9952;47.122;-1.638;2022-12-24T13:36:14;2.67;;;0.60;;
19609;SDS011;9952;47.122;-1.638;2022-12-24T13:41:35;4.33;;;0.50;;
19609;SDS011;9952;47.122;-1.638;2022-12-24T13:46:44;5.33;;;0.50;;
19609;SDS011;9952;47.122;-1.638;2022-12-24T13:51:37;2.43;;;0.70;;
19609;SDS011;9952;47.122;-1.638;2022-12-24T13:56:19;1.87;;;0.47;;
19609;SDS011;9952;47.122;-1.638;2022-12-24T14:01:09;3.47;;;0.40;;
19609;SDS011;9952;47.122;-1.638;2022-12-24T14:05:57;0.60;;;0.40;;
19609;SDS011;9952;47.122;-1.638;2022-12-24T14:10:44;1.37;;;0.43;;
19609;SDS011;9952;47.122;-1.638;2022-12-24T14:20:27;4.77;;;0.87;;
19609;SDS011;9952;47.122;-1.638;2022-12-24T14:30:05;5.80;;;1.63;;
19609;SDS011;9952;47.122;-1.638;2022-12-24T14:35:03;4.23;;;0.70;;
19609;SDS011;9952;47.122;-1.638;2022-12-24T14:39:49;1.37;;;0.60;;
19609;SDS011;9952;47.122;-1.638;2022-12-24T14:59:15;2.83;;;1.10;;
19609;SDS011;9952;47.122;-1.638;2022-12-24T15:04:00;2.03;;;1.20;;
19609;SDS011;9952;47.122;-1.638;2022-12-24T15:08:53;3.93;;;0.90;;
19609;SDS011;9952;47.122;-1.638;2022-12-24T15:13:35;4.93;;;0.90;;
19609;SDS011;9952;47.122;-1.638;2022-12-24T15:18:20;4.00;;;1.40;;
19609;SDS011;9952;47.122;-1.638;2022-12-24T15:23:04;4.70;;;0.70;;
19609;SDS011;9952;47.122;-1.638;2022-12-24T15:27:45;7.27;;;1.30;;
19609;SDS011;9952;47.122;-1.638;2022-12-24T15:32:25;6.70;;;1.07;;
19609;SDS011;9952;47.122;-1.638;2022-12-24T15:37:11;3.27;;;1.30;;
19609;SDS011;9952;47.122;-1.638;2022-12-24T15:41:58;12.07;;;5.07;;
19609;SDS011;9952;47.122;-1.638;2022-12-24T15:47:00;7.23;;;3.53;;
19609;SDS011;9952;47.122;-1.638;2022-12-24T15:51:43;6.40;;;2.77;;
19609;SDS011;9952;47.122;-1.638;2022-12-24T15:56:31;11.40;;;3.10;;
19609;SDS011;9952;47.122;-1.638;2022-12-24T16:01:26;7.67;;;2.37;;
19609;SDS011;9952;47.122;-1.638;2022-12-24T16:06:08;4.27;;;2.07;;
19609;SDS011;9952;47.122;-1.638;2022-12-24T16:11:05;6.73;;;2.73;;
19609;SDS011;9952;47.122;-1.638;2022-12-24T16:16:13;5.23;;;1.00;;
19609;SDS011;9952;47.122;-1.638;2022-12-24T16:20:55;8.00;;;2.40;;
19609;SDS011;9952;47.122;-1.638;2022-12-24T16:25:36;3.97;;;1.00;;
19609;SDS011;9952;47.122;-1.638;2022-12-24T16:30:18;2.53;;;0.67;;
19609;SDS011;9952;47.122;-1.638;2022-12-24T16:35:00;4.47;;;0.90;;
19609;SDS011;9952;47.122;-1.638;2022-12-24T16:39:43;3.20;;;0.57;;
19609;SDS011;9952;47.122;-1.638;2022-12-24T16:44:25;2.83;;;0.67;;
19609;SDS011;9952;47.122;-1.638;2022-12-24T16:49:08;3.40;;;0.70;;
19609;SDS011;9952;47.122;-1.638;2022-12-24T16:53:55;2.23;;;0.77;;
19609;SDS011;9952;47.122;-1.638;2022-12-24T16:58:36;1.07;;;0.50;;
19609;SDS011;9952;47.122;-1.638;2022-12-24T17:03:17;1.90;;;0.67;;
19609;SDS011;9952;47.122;-1.638;2022-12-24T17:07:58;2.43;;;1.37;;
19609;SDS011;9952;47.122;-1.638;2022-12-24T17:12:40;2.00;;;0.90;;
19609;SDS011;9952;47.122;-1.638;2022-12-24T17:17:22;1.90;;;1.07;;
19609;SDS011;9952;47.122;-1.638;2022-12-24T17:22:06;3.67;;;0.90;;
19609;SDS011;9952;47.122;-1.638;2022-12-24T17:26:47;3.77;;;1.00;;
19609;SDS011;9952;47.122;-1.638;2022-12-24T17:31:28;2.10;;;0.80;;
19609;SDS011;9952;47.122;-1.638;2022-12-24T17:36:09;1.53;;;0.70;;
19609;SDS011;9952;47.122;-1.638;2022-12-24T17:40:49;1.07;;;0.90;;
19609;SDS011;9952;47.122;-1.638;2022-12-24T17:45:30;1.77;;;0.97;;
19609;SDS011;9952;47.122;-1.638;2022-12-24T17:50:11;1.60;;;0.77;;
19609;SDS011;9952;47.122;-1.638;2022-12-24T17:54:52;2.70;;;0.70;;
19609;SDS011;9952;47.122;-1.638;2022-12-24T17:59:33;1.40;;;0.70;;
19609;SDS011;9952;47.122;-1.638;2022-12-24T18:04:14;3.03;;;1.30;;
19609;SDS011;9952;47.122;-1.638;2022-12-24T18:08:55;2.30;;;1.20;;
19609;SDS011;9952;47.122;-1.638;2022-12-24T18:13:36;1.63;;;1.03;;
19609;SDS011;9952;47.122;-1.638;2022-12-24T18:18:18;2.30;;;0.97;;
19609;SDS011;9952;47.122;-1.638;2022-12-24T18:22:59;3.57;;;1.47;;
19609;SDS011;9952;47.122;-1.638;2022-12-24T18:27:40;3.93;;;2.17;;
19609;SDS011;9952;47.122;-1.638;2022-12-24T18:32:21;6.10;;;3.30;;
19609;SDS011;9952;47.122;-1.638;2022-12-24T18:37:02;3.97;;;2.30;;
19609;SDS011;9952;47.122;-1.638;2022-12-24T18:41:42;1.57;;;1.37;;
19609;SDS011;9952;47.122;-1.638;2022-12-24T18:46:24;3.40;;;1.03;;
19609;SDS011;9952;47.122;-1.638;2022-12-24T18:51:10;2.20;;;1.00;;
19609;SDS011;9952;47.122;-1.638;2022-12-24T18:55:51;1.77;;;1.23;;
19609;SDS011;9952;47.122;-1.638;2022-12-24T19:00:32;2.97;;;0.80;;
19609;SDS011;9952;47.122;-1.638;2022-12-24T19:05:13;2.13;;;1.20;;
19609;SDS011;9952;47.122;-1.638;2022-12-24T19:09:54;1.30;;;1.00;;
19609;SDS011;9952;47.122;-1.638;2022-12-24T19:14:34;1.43;;;1.03;;
19609;SDS011;9952;47.122;-1.638;2022-12-24T19:19:15;1.30;;;0.90;;
19609;SDS011;9952;47.122;-1.638;2022-12-24T19:24:00;2.33;;;1.03;;
19609;SDS011;9952;47.122;-1.638;2022-12-24T19:28:41;1.13;;;0.93;;
19609;SDS011;9952;47.122;-1.638;2022-12-24T19:33:22;1.00;;;0.90;;
19609;SDS011;9952;47.122;-1.638;2022-12-24T19:38:03;2.07;;;0.80;;
19609;SDS011;9952;47.122;-1.638;2022-12-24T19:42:44;2.17;;;1.40;;
19609;SDS011;9952;47.122;-1.638;2022-12-24T19:47:26;1.33;;;1.20;;
19609;SDS011;9952;47.122;-1.638;2022-12-24T19:52:06;22.67;;;9.30;;
19609;SDS011;9952;47.122;-1.638;2022-12-24T19:56:47;28.33;;;12.80;;
19609;SDS011;9952;47.122;-1.638;2022-12-24T20:01:29;15.37;;;8.43;;
19609;SDS011;9952;47.122;-1.638;2022-12-24T20:06:12;7.67;;;4.80;;
19609;SDS011;9952;47.122;-1.638;2022-12-24T20:10:54;12.37;;;5.37;;
19609;SDS011;9952;47.122;-1.638;2022-12-24T20:15:39;20.23;;;11.30;;
19609;SDS011;9952;47.122;-1.638;2022-12-24T20:20:21;26.70;;;13.87;;
19609;SDS011;9952;47.122;-1.638;2022-12-24T20:25:01;13.57;;;6.43;;
19609;SDS011;9952;47.122;-1.638;2022-12-24T20:29:42;10.87;;;5.63;;
19609;SDS011;9952;47.122;-1.638;2022-12-24T20:34:23;4.10;;;2.60;;
19609;SDS011;9952;47.122;-1.638;2022-12-24T20:39:04;2.63;;;2.03;;
19609;SDS011;9952;47.122;-1.638;2022-12-24T20:43:45;4.57;;;2.80;;
19609;SDS011;9952;47.122;-1.638;2022-12-24T20:48:27;3.37;;;2.50;;
19609;SDS011;9952;47.122;-1.638;2022-12-24T20:53:09;5.03;;;2.60;;
19609;SDS011;9952;47.122;-1.638;2022-12-24T20:57:50;3.40;;;2.60;;
19609;SDS011;9952;47.122;-1.638;2022-12-24T21:02:31;3.57;;;2.70;;
19609;SDS011;9952;47.122;-1.638;2022-12-24T21:07:12;4.73;;;3.13;;
19609;SDS011;9952;47.122;-1.638;2022-12-24T21:11:53;2.93;;;2.60;;
19609;SDS011;9952;47.122;-1.638;2022-12-24T21:16:34;3.30;;;2.60;;
19609;SDS011;9952;47.122;-1.638;2022-12-24T21:21:16;4.17;;;3.00;;
19609;SDS011;9952;47.122;-1.638;2022-12-24T21:25:57;5.40;;;2.40;;
19609;SDS011;9952;47.122;-1.638;2022-12-24T21:30:39;4.53;;;2.30;;
19609;SDS011;9952;47.122;-1.638;2022-12-24T21:35:21;3.07;;;2.33;;
19609;SDS011;9952;47.122;-1.638;2022-12-24T21:40:02;9.00;;;3.30;;
19609;SDS011;9952;47.122;-1.638;2022-12-24T21:44:44;4.37;;;3.20;;
19609;SDS011;9952;47.122;-1.638;2022-12-24T21:49:25;4.50;;;3.17;;
19609;SDS011;9952;47.122;-1.638;2022-12-24T21:54:24;3.50;;;2.80;;
19609;SDS011;9952;47.122;-1.638;2022-12-24T21:59:12;4.03;;;2.73;;
19609;SDS011;9952;47.122;-1.638;2022-12-24T22:03:52;6.57;;;2.90;;
19609;SDS011;9952;47.122;-1.638;2022-12-24T22:08:33;3.87;;;2.80;;
19609;SDS011;9952;47.122;-1.638;2022-12-24T22:13:32;3.23;;;2.83;;
19609;SDS011;9952;47.122;-1.638;2022-12-24T22:18:13;3.47;;;2.73;;
19609;SDS011;9952;47.122;-1.638;2022-12-24T22:22:55;4.17;;;3.20;;
19609;SDS011;9952;47.122;-1.638;2022-12-24T22:27:36;4.23;;;3.10;;
19609;SDS011;9952;47.122;-1.638;2022-12-24T22:32:17;6.90;;;3.40;;
19609;SDS011;9952;47.122;-1.638;2022-12-24T22:36:57;3.63;;;3.23;;
19609;SDS011;9952;47.122;-1.638;2022-12-24T22:41:38;4.07;;;3.17;;
19609;SDS011;9952;47.122;-1.638;2022-12-24T22:46:19;5.70;;;3.47;;
19609;SDS011;9952;47.122;-1.638;2022-12-24T22:51:03;4.83;;;3.50;;
19609;SDS011;9952;47.122;-1.638;2022-12-24T22:55:57;4.63;;;3.37;;
19609;SDS011;9952;47.122;-1.638;2022-12-24T23:00:42;4.23;;;3.50;;
19609;SDS011;9952;47.122;-1.638;2022-12-24T23:05:24;4.80;;;3.50;;
19609;SDS011;9952;47.122;-1.638;2022-12-24T23:10:04;6.57;;;3.60;;
19609;SDS011;9952;47.122;-1.638;2022-12-24T23:14:46;6.27;;;3.10;;
19609;SDS011;9952;47.122;-1.638;2022-12-24T23:19:36;14.00;;;8.70;;
19609;SDS011;9952;47.122;-1.638;2022-12-24T23:24:17;12.57;;;6.47;;
19609;SDS011;9952;47.122;-1.638;2022-12-24T23:28:58;9.07;;;6.20;;
19609;SDS011;9952;47.122;-1.638;2022-12-24T23:33:39;9.80;;;6.93;;
19609;SDS011;9952;47.122;-1.638;2022-12-24T23:38:20;9.30;;;6.67;;
19609;SDS011;9952;47.122;-1.638;2022-12-24T23:43:01;5.33;;;3.67;;
19609;SDS011;9952;47.122;-1.638;2022-12-24T23:47:42;7.80;;;3.77;;
19609;SDS011;9952;47.122;-1.638;2022-12-24T23:52:23;7.53;;;4.70;;
19609;SDS011;9952;47.122;-1.638;2022-12-24T23:57:03;9.73;;;4.70;;
